createdAt,value
2022-08-25T00:04:36.674Z,99674.91
2022-08-25T00:10:40.047Z,99672.34
2022-08-25T00:16:43.412Z,99671.03
2022-08-25T00:22:45.403Z,99665.34
2022-08-25T00:28:47.365Z,99678.94
2022-08-25T00:34:49.412Z,99670.72
2022-08-25T00:41:05.842Z,99675.50
2022-08-25T00:47:09.922Z,99670.53
2022-08-25T00:53:12.297Z,99675.72
2022-08-25T00:59:16.423Z,99673.38
2022-08-25T01:05:19.633Z,99673.72
2022-08-25T01:11:21.818Z,99674.28
2022-08-25T01:17:27.844Z,99666.16
2022-08-25T01:23:30.144Z,99669.31
2022-08-25T01:29:33.080Z,99666.97
2022-08-25T01:35:36.455Z,99678.78
2022-08-25T01:42:11.656Z,99668.03
2022-08-25T01:48:15.422Z,99653.56
2022-08-25T01:54:17.750Z,99661.00
2022-08-25T02:00:21.315Z,99656.59
2022-08-25T02:06:32.482Z,99665.41
2022-08-25T02:12:36.740Z,99642.97
2022-08-25T02:18:38.695Z,99650.50
2022-08-25T02:24:40.663Z,99649.56
2022-08-25T02:30:43.571Z,99650.50
2022-08-25T02:36:45.681Z,99636.06
2022-08-25T02:42:49.905Z,99651.09
2022-08-25T02:48:53.305Z,99653.66
2022-08-25T02:54:55.543Z,99649.66
2022-08-25T03:00:57.777Z,99651.41
2022-08-25T03:06:59.982Z,99642.13
2022-08-25T03:13:02.007Z,99633.41
2022-08-25T03:19:04.944Z,99640.25
2022-08-25T03:25:28.010Z,99632.56
2022-08-25T03:31:30.014Z,99623.03
2022-08-25T03:37:32.101Z,99616.59
2022-08-25T03:43:34.081Z,99616.34
2022-08-25T03:49:36.049Z,99621.06
2022-08-25T03:55:38.049Z,99634.38
2022-08-25T04:01:43.050Z,99634.16
2022-08-25T04:07:45.036Z,99642.41
2022-08-25T04:13:48.137Z,99640.50
2022-08-25T04:19:50.750Z,99646.97
2022-08-25T04:25:53.030Z,99638.72
2022-08-25T04:31:55.812Z,99630.22
2022-08-25T04:37:57.947Z,99641.44
2022-08-25T04:44:01.306Z,99641.09
2022-08-25T04:50:03.787Z,99638.97
2022-08-25T04:56:09.697Z,99637.19
2022-08-25T05:02:11.634Z,99644.16
2022-08-25T05:08:13.778Z,99637.31
2022-08-25T05:14:21.649Z,99634.47
2022-08-25T05:20:27.720Z,99637.06
2022-08-25T05:26:32.466Z,99638.25
2022-08-25T05:32:34.452Z,99635.53
2022-08-25T05:38:37.818Z,99644.84
2022-08-25T05:44:42.919Z,99629.50
2022-08-25T05:50:55.885Z,99618.25
2022-08-25T05:56:58.606Z,99617.13
2022-08-25T06:03:01.162Z,99614.47
2022-08-25T06:09:06.493Z,99620.47
2022-08-25T06:15:09.606Z,99614.97
2022-08-25T06:21:14.520Z,99622.91
2022-08-25T06:27:16.627Z,99625.22
2022-08-25T06:33:18.961Z,99629.19
2022-08-25T06:39:21.765Z,99634.41
2022-08-25T06:45:24.892Z,99624.38
2022-08-25T06:51:27.572Z,99621.72
2022-08-25T06:57:29.712Z,99631.78
2022-08-25T07:03:33.217Z,99641.69
2022-08-25T07:09:38.670Z,99633.31
2022-08-25T07:15:43.818Z,99619.72
2022-08-25T07:21:49.893Z,99609.75
2022-08-25T07:27:56.983Z,99604.50
2022-08-25T07:34:19.536Z,99604.31
2022-08-25T07:40:32.361Z,99596.72
2022-08-25T07:46:34.953Z,99604.13
2022-08-25T07:52:37.119Z,99601.22
2022-08-25T07:58:42.199Z,99599.94
2022-08-25T08:04:45.387Z,99605.22
2022-08-25T08:11:03.161Z,99601.47
2022-08-25T08:17:09.485Z,99599.78
2022-08-25T08:23:12.473Z,99607.84
2022-08-25T08:29:15.068Z,99606.97
2022-08-25T08:35:18.979Z,99598.94
2022-08-25T08:42:17.344Z,99603.75
2022-08-25T08:48:46.992Z,99583.13
2022-08-25T08:54:56.872Z,99579.41
2022-08-25T09:00:59.581Z,99579.38
2022-08-25T09:07:11.035Z,99568.53
2022-08-25T09:13:48.792Z,99574.72
2022-08-25T09:20:29.430Z,99569.31
2022-08-25T09:26:58.928Z,99575.41
2022-08-25T09:33:05.255Z,99558.06
2022-08-25T09:39:07.969Z,99556.72
2022-08-25T09:45:14.845Z,99548.56
2022-08-25T09:51:38.190Z,99542.94
2022-08-25T09:57:52.939Z,99534.00
2022-08-25T10:04:05.546Z,99520.16
2022-08-25T10:10:41.979Z,99513.75
2022-08-25T10:16:46.944Z,99505.75
2022-08-25T10:22:51.380Z,99494.91
2022-08-25T10:29:06.304Z,99479.38
2022-08-25T10:35:32.418Z,99478.88
2022-08-25T10:41:53.436Z,99464.66
2022-08-25T10:48:41.894Z,99462.00
2022-08-25T10:54:57.571Z,99448.31
2022-08-25T11:01:18.855Z,99437.53
2022-08-25T11:07:40.484Z,99437.56
2022-08-25T11:14:09.194Z,99429.91
2022-08-25T11:20:27.132Z,99423.88
2022-08-25T11:26:36.856Z,99419.38
2022-08-25T11:32:44.308Z,99407.72
2022-08-25T11:39:11.565Z,99407.72
2022-08-25T11:45:19.191Z,99387.06
2022-08-25T11:51:45.128Z,99383.53
2022-08-25T11:57:53.641Z,99380.00
2022-08-25T12:04:34.111Z,99376.06
2022-08-25T12:11:11.161Z,99379.66
2022-08-25T12:17:25.410Z,99365.38
2022-08-25T12:23:36.645Z,99372.03
2022-08-25T12:29:47.215Z,99354.88
2022-08-25T12:35:57.939Z,99353.91
2022-08-25T12:42:12.768Z,99346.41
2022-08-25T12:48:27.008Z,99347.63
2022-08-25T12:55:11.485Z,99345.69
2022-08-25T13:01:54.578Z,99344.22
2022-08-25T13:08:15.954Z,99339.94
2022-08-25T13:14:34.771Z,99334.28
2022-08-25T13:20:40.308Z,99320.41
2022-08-25T13:26:52.730Z,99321.88
2022-08-25T13:32:54.858Z,99310.66
2022-08-25T13:39:45.546Z,99312.03
2022-08-25T13:45:50.543Z,99299.53
2022-08-25T13:51:55.137Z,99293.84
2022-08-25T13:57:59.335Z,99295.03
2022-08-25T14:04:50.887Z,99282.38
2022-08-25T14:11:14.897Z,99275.38
2022-08-25T14:17:36.314Z,99263.09
2022-08-25T14:23:40.772Z,99263.94
2022-08-25T14:29:42.759Z,99255.34
2022-08-25T14:35:53.747Z,99261.84
2022-08-25T14:41:55.987Z,99259.09
2022-08-25T14:48:10.418Z,99243.91
2022-08-25T14:54:18.442Z,99240.56
2022-08-25T15:00:21.247Z,99238.09
2022-08-25T15:06:29.365Z,99235.03
2022-08-25T15:12:46.526Z,99228.91
2022-08-25T15:18:50.376Z,99226.84
2022-08-25T15:24:52.786Z,99223.41
2022-08-25T15:30:54.783Z,99221.69
2022-08-25T15:36:58.469Z,99212.72
2022-08-25T15:43:01.617Z,99211.63
2022-08-25T15:49:05.324Z,99190.75
2022-08-25T15:55:11.619Z,99196.78
2022-08-25T16:01:19.711Z,99199.63
2022-08-25T16:07:21.871Z,99175.94
2022-08-25T16:13:24.532Z,99169.03
2022-08-25T16:19:29.348Z,99169.91
2022-08-25T16:25:32.342Z,99166.19
2022-08-25T16:31:34.593Z,99164.31
2022-08-25T16:37:36.795Z,99160.25
2022-08-25T16:43:39.645Z,99166.78
2022-08-25T16:49:42.377Z,99157.34
2022-08-25T16:55:45.427Z,99149.47
2022-08-25T17:01:47.528Z,99147.75
2022-08-25T17:08:09.480Z,99156.81
2022-08-25T17:14:18.169Z,99152.25
2022-08-25T17:20:20.861Z,99151.44
2022-08-25T17:26:27.995Z,99161.56
2022-08-25T17:32:31.000Z,99153.41
2022-08-25T17:38:33.778Z,99150.75
2022-08-25T17:44:35.744Z,99152.81
2022-08-25T17:50:40.661Z,99157.94
2022-08-25T17:56:42.714Z,99149.72
2022-08-25T18:02:45.326Z,99144.34
2022-08-25T18:08:51.266Z,99157.56
2022-08-25T18:14:54.996Z,99165.19
2022-08-25T18:20:57.150Z,99161.75
2022-08-25T18:26:59.350Z,99152.84
2022-08-25T18:33:01.897Z,99155.59
2022-08-25T18:39:23.597Z,99150.81
2022-08-25T18:45:48.015Z,99160.34
2022-08-25T18:51:50.405Z,99162.94
2022-08-25T18:57:52.617Z,99161.91
2022-08-25T19:03:54.615Z,99159.53
2022-08-25T19:09:56.660Z,99166.38
2022-08-25T19:15:59.398Z,99167.41
2022-08-25T19:22:01.592Z,99172.19
2022-08-25T19:28:09.081Z,99171.88
2022-08-25T19:34:21.712Z,99186.13
2022-08-25T19:40:25.341Z,99179.13
2022-08-25T19:46:37.383Z,99177.72
2022-08-25T19:52:40.280Z,99175.44
2022-08-25T19:58:44.597Z,99179.13
2022-08-25T20:04:50.331Z,99182.56
2022-08-25T20:10:53.042Z,99188.81
2022-08-25T20:16:58.734Z,99186.59
2022-08-25T20:23:19.553Z,99187.34
2022-08-25T20:29:21.627Z,99193.94
2022-08-25T20:35:28.167Z,99197.28
2022-08-25T20:41:30.148Z,99191.78
2022-08-25T20:47:32.332Z,99186.59
2022-08-25T20:53:37.194Z,99196.25
2022-08-25T20:59:39.188Z,99198.56
2022-08-25T21:05:43.262Z,99185.97
2022-08-25T21:11:46.848Z,99197.59
2022-08-25T21:17:54.478Z,99192.66
2022-08-25T21:23:56.725Z,99185.97
2022-08-25T21:29:59.808Z,99183.69
2022-08-25T21:36:02.057Z,99198.81
2022-08-25T21:42:07.161Z,99196.16
2022-08-25T21:48:10.758Z,99195.19
2022-08-25T21:54:18.226Z,99187.56
2022-08-25T22:00:26.135Z,99194.16
2022-08-25T22:06:29.465Z,99195.78
2022-08-25T22:12:31.446Z,99191.88
2022-08-25T22:18:33.468Z,99189.56
2022-08-25T22:24:35.630Z,99185.63
2022-08-25T22:30:38.776Z,99179.91
2022-08-25T22:36:42.903Z,99175.31
2022-08-25T22:42:48.050Z,99180.81
2022-08-25T22:48:51.656Z,99181.06
2022-08-25T22:54:54.583Z,99187.41
2022-08-25T23:00:58.382Z,99175.75
2022-08-25T23:07:00.485Z,99170.97
2022-08-25T23:13:02.493Z,99173.41
2022-08-25T23:19:13.753Z,99166.63
2022-08-25T23:25:17.117Z,99167.75
2022-08-25T23:31:20.173Z,99165.47
2022-08-25T23:37:23.123Z,99170.91
2022-08-25T23:43:25.731Z,99161.69
2022-08-25T23:49:27.732Z,99161.94
2022-08-25T23:55:34.014Z,99149.19
